logo
Search for airport 
image banner adimage banner adimage banner ad
image banner ad

FLLK - Lukulu

Located in Lukulu, Zambia

ICAO - FLLK, IATA - LXU

Data provided by Airmate  

General information

Coordinates: S14°22'37" E23°14'36"
Elevation is 3480 feet MSL.
Magnetic variation is -4° East
View others Airports in Western Province

Operational data

Special qualification required
Current time UTC:
Current local time:
Weather at : - ( 0 km )
METAR: KXSA 140115Z AUTO 00000KT 10SM CLR 13/02 A2997 RMK AO2 T01260015
View NOTAMs / SUP AIP / TFR affecting this airport [VIEW]
Communications frequencies: [VIEW]

Runways:

RWY identifierQFULength (ft)Width (ft)SurfaceLDA (ft)
0977°384367DIRT
27257°384367DIRT

Airport contact information

Address: Lukulu Zambia

Satellite view of FLLK